Time;durP1;ratioP1;P1;durP2;ratioP2;P2;SDS_P1;SDS_P2;PMS_P1;PMS_P2;Temp;Humidity;BMP_temperature;BMP_pressure;BME280_temperature;BME280_humidity;BME280_pressure;Samples;Min_cycle;Max_cycle;Signal;HPM_P1;HPM_P2
2022/04/12 00:01:53;;;;;;;17.23;8.48;;;;;;;;;;5052237;27;96760;-77
2022/04/12 00:04:20;;;;;;;15.20;8.02;;;;;;;;;;5043028;27;97230;-77
2022/04/12 00:07:04;;;;;;;38.40;9.13;;;;;;;;;;5032931;27;95261;-77
2022/04/12 00:09:30;;;;;;;17.08;8.25;;;;;;;;;;5030009;28;97504;-76
2022/04/12 00:11:58;;;;;;;29.70;9.05;;;;;;;;;;5032511;28;97348;-77
2022/04/12 00:14:25;;;;;;;12.70;8.40;;;;;;;;;;5029525;27;96805;-76
2022/04/12 00:19:02;;;;;;;17.08;8.63;;;;;;;;;;5030080;28;97639;-76
2022/04/12 00:19:37;;;;;;;20.08;9.05;;;;;;;;;;5030083;28;95478;-75
2022/04/12 00:22:04;;;;;;;12.50;8.10;;;;;;;;;;5030526;28;96835;-77
2022/04/12 00:24:30;;;;;;;16.67;8.27;;;;;;;;;;5031188;27;97289;-75
2022/04/12 00:26:56;;;;;;;13.05;7.95;;;;;;;;;;5031333;27;95169;-75
2022/04/12 00:29:23;;;;;;;15.95;8.13;;;;;;;;;;5031381;27;96631;-75
2022/04/12 00:31:49;;;;;;;14.35;8.15;;;;;;;;;;5031490;27;97634;-76
2022/04/12 00:34:15;;;;;;;12.00;7.20;;;;;;;;;;5046883;27;95805;-76
2022/04/12 00:36:42;;;;;;;15.15;7.53;;;;;;;;;;5051144;27;97369;-77
2022/04/12 00:39:08;;;;;;;17.75;8.07;;;;;;;;;;5051196;27;95751;-76
2022/04/12 00:41:35;;;;;;;21.17;7.88;;;;;;;;;;5051145;27;96785;-76
2022/04/12 00:44:02;;;;;;;16.45;7.82;;;;;;;;;;5050914;27;97357;-76
2022/04/12 00:46:28;;;;;;;32.10;8.75;;;;;;;;;;5051206;27;95361;-76
2022/04/12 00:48:55;;;;;;;12.77;7.07;;;;;;;;;;5051283;27;97525;-74
2022/04/12 00:51:22;;;;;;;11.45;7.47;;;;;;;;;;5050957;27;97302;-77
2022/04/12 00:53:49;;;;;;;14.07;7.95;;;;;;;;;;5050990;27;95204;-76
2022/04/12 00:56:17;;;;;;;13.65;7.50;;;;;;;;;;5054285;27;97069;-76
2022/04/12 00:58:46;;;;;;;16.27;7.80;;;;;;;;;;5051449;27;95318;-75
2022/04/12 01:01:13;;;;;;;16.85;8.38;;;;;;;;;;5050626;27;95750;-75
2022/04/12 01:03:39;;;;;;;12.18;7.38;;;;;;;;;;5049259;27;97335;-76
2022/04/12 01:06:05;;;;;;;14.43;7.82;;;;;;;;;;5050222;27;95808;-75
2022/04/12 01:08:32;;;;;;;17.75;8.07;;;;;;;;;;5049496;27;96832;-75
2022/04/12 01:11:04;;;;;;;16.52;7.85;;;;;;;;;;5050733;27;97645;-78
2022/04/12 01:13:31;;;;;;;15.95;7.43;;;;;;;;;;5051219;27;95346;-75
2022/04/12 01:15:57;;;;;;;14.45;7.70;;;;;;;;;;5050391;27;96009;-75
2022/04/12 01:18:24;;;;;;;14.98;8.00;;;;;;;;;;5054128;27;97560;-78
2022/04/12 01:20:50;;;;;;;16.65;7.53;;;;;;;;;;5051400;27;96837;-77
2022/04/12 01:23:25;;;;;;;24.98;8.23;;;;;;;;;;5049925;27;97240;-77
2022/04/12 01:25:51;;;;;;;19.65;7.88;;;;;;;;;;5050552;27;95892;-77
2022/04/12 01:28:17;;;;;;;16.98;7.10;;;;;;;;;;5050312;27;96739;-77
2022/04/12 01:30:44;;;;;;;17.50;7.85;;;;;;;;;;5050239;27;97340;-78
2022/04/12 01:33:10;;;;;;;33.05;9.18;;;;;;;;;;5044190;27;96207;-77
2022/04/12 01:35:36;;;;;;;19.23;7.85;;;;;;;;;;5029902;28;97042;-76
2022/04/12 01:38:03;;;;;;;12.02;7.85;;;;;;;;;;5033443;28;96261;-75
2022/04/12 01:40:30;;;;;;;18.58;8.25;;;;;;;;;;5028939;28;97171;-75
2022/04/12 01:42:56;;;;;;;13.93;8.18;;;;;;;;;;5029836;27;97127;-77
2022/04/12 01:45:24;;;;;;;13.02;8.80;;;;;;;;;;5030305;28;95726;-77
2022/04/12 01:47:50;;;;;;;25.73;7.80;;;;;;;;;;5030323;28;96794;-76
2022/04/12 01:50:16;;;;;;;21.83;8.43;;;;;;;;;;5029041;27;97478;-75
2022/04/12 01:52:43;;;;;;;12.52;7.60;;;;;;;;;;5030226;27;96443;-76
2022/04/12 01:55:10;;;;;;;14.73;8.95;;;;;;;;;;5029607;28;97177;-77
2022/04/12 01:57:36;;;;;;;13.32;7.75;;;;;;;;;;5030796;27;97737;-77
2022/04/12 02:00:03;;;;;;;18.70;8.38;;;;;;;;;;5033098;28;95408;-77
2022/04/12 02:02:29;;;;;;;20.13;8.85;;;;;;;;;;5029549;27;96107;-77
2022/04/12 02:04:56;;;;;;;36.22;8.63;;;;;;;;;;5028085;28;95766;-77
2022/04/12 02:07:22;;;;;;;15.68;7.80;;;;;;;;;;5029503;28;97074;-76
2022/04/12 02:09:48;;;;;;;17.13;8.10;;;;;;;;;;5029826;28;97299;-76
2022/04/12 02:12:15;;;;;;;14.30;8.13;;;;;;;;;;5029333;27;95422;-77
2022/04/12 02:14:41;;;;;;;27.75;8.80;;;;;;;;;;5028460;28;96818;-77
2022/04/12 02:17:07;;;;;;;53.10;11.15;;;;;;;;;;5028465;27;97877;-77
2022/04/12 02:19:34;;;;;;;16.27;7.95;;;;;;;;;;5030207;27;95466;-75
2022/04/12 02:22:00;;;;;;;17.80;7.90;;;;;;;;;;5032465;27;96842;-75
2022/04/12 02:24:26;;;;;;;15.98;7.10;;;;;;;;;;5029614;28;95818;-76
2022/04/12 02:26:52;;;;;;;13.65;7.32;;;;;;;;;;5029278;27;96758;-75
2022/04/12 02:29:19;;;;;;;20.73;7.85;;;;;;;;;;5028923;27;97344;-75
2022/04/12 02:31:45;;;;;;;19.05;8.00;;;;;;;;;;5029662;28;95514;-75
2022/04/12 02:34:11;;;;;;;28.23;8.32;;;;;;;;;;5029043;28;96529;-75
2022/04/12 02:36:38;;;;;;;23.48;7.78;;;;;;;;;;5027964;28;97510;-76
2022/04/12 02:39:04;;;;;;;17.00;7.68;;;;;;;;;;5028848;27;95473;-75
2022/04/12 02:41:30;;;;;;;14.85;7.53;;;;;;;;;;5029117;27;95965;-74
2022/04/12 02:43:57;;;;;;;13.38;7.93;;;;;;;;;;5032596;28;97407;-75
2022/04/12 02:46:23;;;;;;;11.93;7.22;;;;;;;;;;5028949;28;96685;-75
2022/04/12 02:48:50;;;;;;;33.63;9.15;;;;;;;;;;5033311;27;97338;-75
2022/04/12 02:51:16;;;;;;;45.90;9.63;;;;;;;;;;5049426;27;95483;-76
2022/04/12 02:53:42;;;;;;;12.55;7.78;;;;;;;;;;5049205;27;96708;-76
2022/04/12 02:56:08;;;;;;;22.23;8.27;;;;;;;;;;5048853;27;96106;-74
2022/04/12 02:58:35;;;;;;;32.70;8.25;;;;;;;;;;5049913;27;95297;-74
2022/04/12 03:01:01;;;;;;;24.55;8.52;;;;;;;;;;5048746;27;96584;-76
2022/04/12 03:03:27;;;;;;;62.80;10.50;;;;;;;;;;5049097;27;97353;-75
2022/04/12 03:05:54;;;;;;;68.05;11.27;;;;;;;;;;5052112;27;95268;-75
2022/04/12 03:11:05;;;;;;;15.65;8.48;;;;;;;;;;5008767;28;95992;-75
2022/04/12 03:13:32;;;;;;;19.27;8.48;;;;;;;;;;5008945;28;96880;-75
2022/04/12 03:15:59;;;;;;;16.52;8.38;;;;;;;;;;5007653;28;96287;-75
2022/04/12 03:18:25;;;;;;;18.25;8.55;;;;;;;;;;5009049;28;96080;-76
2022/04/12 03:20:52;;;;;;;18.73;8.23;;;;;;;;;;5024096;28;95916;-77
2022/04/12 03:23:36;;;;;;;16.00;9.18;;;;;;;;;;5007525;28;95641;-75
2022/04/12 03:26:03;;;;;;;15.45;8.63;;;;;;;;;;5008874;28;96377;-77
2022/04/12 03:28:29;;;;;;;39.45;10.32;;;;;;;;;;5043074;27;96779;-75
2022/04/12 03:33:41;;;;;;;26.88;9.80;;;;;;;;;;5052728;27;96608;-77
2022/04/12 03:36:07;;;;;;;15.27;8.80;;;;;;;;;;5051691;27;97291;-77
2022/04/12 03:38:35;;;;;;;17.83;8.32;;;;;;;;;;5051471;27;95333;-78
2022/04/12 03:41:03;;;;;;;15.85;8.63;;;;;;;;;;5052505;27;95645;-78
2022/04/12 03:43:29;;;;;;;14.93;8.30;;;;;;;;;;5051364;27;96307;-77
2022/04/12 03:45:55;;;;;;;14.50;8.55;;;;;;;;;;5052599;27;95467;-77
2022/04/12 03:48:22;;;;;;;21.20;8.75;;;;;;;;;;5055539;27;96632;-77
2022/04/12 03:50:48;;;;;;;14.32;8.48;;;;;;;;;;5051854;27;95677;-77
2022/04/12 03:53:14;;;;;;;33.53;9.05;;;;;;;;;;5051967;27;96566;-77
2022/04/12 03:55:46;;;;;;;38.28;9.68;;;;;;;;;;5039046;27;96015;-77
2022/04/12 03:58:14;;;;;;;16.87;8.67;;;;;;;;;;5031189;27;95697;-75
2022/04/12 04:00:41;;;;;;;15.13;8.43;;;;;;;;;;5032253;27;96826;-77
2022/04/12 04:03:07;;;;;;;31.83;9.15;;;;;;;;;;5030119;28;97421;-75
2022/04/12 04:05:36;;;;;;;19.40;8.80;;;;;;;;;;5031510;27;96051;-76
2022/04/12 04:08:02;;;;;;;18.20;8.77;;;;;;;;;;5029931;28;96593;-77
2022/04/12 04:10:29;;;;;;;21.20;9.25;;;;;;;;;;5032944;28;97352;-77
2022/04/12 04:12:55;;;;;;;17.63;9.27;;;;;;;;;;5030531;28;97248;-76
2022/04/12 04:15:21;;;;;;;16.90;9.40;;;;;;;;;;5030992;27;97793;-76
2022/04/12 04:17:48;;;;;;;18.35;9.82;;;;;;;;;;5031377;27;95303;-74
2022/04/12 19:03:50;;;;;;;28.58;4.00;;;;;;;;;;4963955;27;1312468;-78
2022/04/12 19:06:17;;;;;;;16.27;3.88;;;;;;;;;;5003799;28;97365;-78
2022/04/12 19:08:43;;;;;;;30.58;4.20;;;;;;;;;;5005348;28;96205;-78
2022/04/12 19:11:09;;;;;;;34.15;3.90;;;;;;;;;;5004075;28;96676;-78
2022/04/12 19:13:35;;;;;;;26.88;4.38;;;;;;;;;;5004803;28;97369;-78
2022/04/12 19:16:02;;;;;;;36.92;4.18;;;;;;;;;;4989258;28;96025;-78
2022/04/12 19:18:48;;;;;;;18.35;5.00;;;;;;;;;;5003884;28;96731;-78
2022/04/12 19:21:14;;;;;;;48.35;5.25;;;;;;;;;;5003832;28;97812;-79
2022/04/12 19:23:41;;;;;;;17.05;5.40;;;;;;;;;;5007762;28;95428;-78
2022/04/12 19:26:07;;;;;;;37.15;6.25;;;;;;;;;;5007836;28;97365;-79
2022/04/12 19:28:34;;;;;;;59.30;7.60;;;;;;;;;;5004563;28;95837;-78
2022/04/12 19:31:02;;;;;;;37.83;4.68;;;;;;;;;;5003903;28;97150;-78
2022/04/12 19:33:29;;;;;;;59.80;6.32;;;;;;;;;;4984338;28;95934;-78
2022/04/12 19:35:56;;;;;;;14.70;4.03;;;;;;;;;;4983983;28;95466;-78
2022/04/12 19:38:22;;;;;;;29.77;4.63;;;;;;;;;;4984289;28;95752;-79
2022/04/12 19:40:49;;;;;;;28.40;4.88;;;;;;;;;;4983911;28;97351;-79
2022/04/12 19:43:19;;;;;;;23.52;4.20;;;;;;;;;;4967042;28;95782;-79
2022/04/12 19:45:45;;;;;;;26.83;4.45;;;;;;;;;;4990919;28;96833;-79
2022/04/12 19:48:12;;;;;;;26.65;5.15;;;;;;;;;;4986973;28;95605;-79
2022/04/12 19:50:39;;;;;;;19.63;4.65;;;;;;;;;;4984840;28;97116;-79
2022/04/12 19:53:05;;;;;;;13.45;3.88;;;;;;;;;;4986903;28;97342;-78
2022/04/12 19:55:32;;;;;;;11.80;4.43;;;;;;;;;;4992840;28;95588;-78
2022/04/12 19:58:05;;;;;;;14.07;3.97;;;;;;;;;;4984031;28;95305;-77
2022/04/12 20:00:33;;;;;;;8.85;3.65;;;;;;;;;;4968874;28;96374;-79
2022/04/12 20:02:59;;;;;;;11.23;4.45;;;;;;;;;;4986671;28;95807;-79
2022/04/12 20:05:26;;;;;;;28.67;4.63;;;;;;;;;;4992548;28;95883;-80
2022/04/12 20:07:55;;;;;;;18.77;4.35;;;;;;;;;;4989796;28;97075;-80
2022/04/12 20:10:22;;;;;;;9.40;5.20;;;;;;;;;;4965986;28;95847;-79
2022/04/12 20:12:49;;;;;;;13.80;4.72;;;;;;;;;;4998477;28;97764;-80
2022/04/12 20:15:16;;;;;;;13.13;4.40;;;;;;;;;;4986655;28;95889;-79
2022/04/12 20:17:44;;;;;;;14.60;4.40;;;;;;;;;;4961474;28;96965;-81
2022/04/12 20:20:11;;;;;;;18.13;5.32;;;;;;;;;;4969182;28;97625;-80
2022/04/12 20:22:37;;;;;;;16.23;5.63;;;;;;;;;;4974977;28;95352;-80
2022/04/12 20:25:04;;;;;;;48.83;7.68;;;;;;;;;;4990810;28;96761;-80
2022/04/12 20:27:31;;;;;;;10.98;5.43;;;;;;;;;;4991216;28;96096;-80
2022/04/12 20:29:58;;;;;;;41.20;7.25;;;;;;;;;;4975787;28;96014;-78
2022/04/12 20:32:25;;;;;;;24.88;5.80;;;;;;;;;;4989956;28;97435;-78
2022/04/12 20:34:51;;;;;;;48.92;7.57;;;;;;;;;;4990553;28;95468;-77
2022/04/12 20:37:17;;;;;;;47.83;7.07;;;;;;;;;;4975944;28;96601;-77
2022/04/12 20:39:46;;;;;;;43.35;7.10;;;;;;;;;;4984771;28;97733;-79
2022/04/12 20:42:13;;;;;;;48.70;7.18;;;;;;;;;;4990487;28;95456;-78
2022/04/12 20:44:40;;;;;;;23.60;5.65;;;;;;;;;;4991641;28;97118;-78
2022/04/12 20:47:06;;;;;;;29.10;6.72;;;;;;;;;;4991329;28;97571;-78
2022/04/12 20:49:32;;;;;;;22.52;5.20;;;;;;;;;;4988694;28;95651;-78
2022/04/12 20:51:59;;;;;;;20.65;5.60;;;;;;;;;;4994227;28;96818;-78
2022/04/12 20:54:25;;;;;;;11.82;4.90;;;;;;;;;;4991336;28;95823;-78
2022/04/12 20:56:51;;;;;;;13.43;5.40;;;;;;;;;;4977338;28;96753;-78
2022/04/12 20:59:18;;;;;;;18.58;6.25;;;;;;;;;;4970948;28;97339;-78
2022/04/12 21:01:45;;;;;;;14.32;5.10;;;;;;;;;;4983937;28;95604;-79
2022/04/12 21:04:11;;;;;;;13.88;5.15;;;;;;;;;;4990540;28;97350;-79
2022/04/12 21:06:38;;;;;;;11.20;5.13;;;;;;;;;;4961813;28;96230;-78
2022/04/12 21:09:04;;;;;;;13.32;5.32;;;;;;;;;;4970935;28;96043;-79
2022/04/12 21:11:31;;;;;;;11.98;5.03;;;;;;;;;;4970857;28;96831;-79
2022/04/12 21:13:57;;;;;;;10.52;5.40;;;;;;;;;;4973843;28;95771;-78
2022/04/12 21:16:23;;;;;;;13.25;5.13;;;;;;;;;;4982527;28;96785;-79
2022/04/12 21:18:50;;;;;;;11.52;5.05;;;;;;;;;;4990338;28;97807;-79
2022/04/12 21:21:16;;;;;;;97.30;9.88;;;;;;;;;;4990769;28;96024;-78
2022/04/12 21:23:42;;;;;;;34.53;6.53;;;;;;;;;;4990172;28;96860;-79
2022/04/12 21:26:09;;;;;;;68.55;8.07;;;;;;;;;;4979890;28;97371;-78
2022/04/12 21:28:35;;;;;;;20.50;6.53;;;;;;;;;;4971442;28;96034;-79
2022/04/12 21:31:01;;;;;;;35.13;6.88;;;;;;;;;;4970606;28;97047;-79
2022/04/12 21:33:28;;;;;;;40.22;7.03;;;;;;;;;;4973357;28;97647;-79
2022/04/12 21:35:54;;;;;;;16.85;6.13;;;;;;;;;;4980591;28;97403;-79
2022/04/12 21:38:21;;;;;;;13.43;6.68;;;;;;;;;;4989827;28;97727;-79
2022/04/12 21:40:47;;;;;;;16.75;6.85;;;;;;;;;;4990660;28;95181;-79
2022/04/12 21:43:13;;;;;;;25.55;6.93;;;;;;;;;;4990424;28;96945;-78
2022/04/12 21:45:40;;;;;;;15.98;6.55;;;;;;;;;;4981993;28;97402;-79
2022/04/12 21:48:06;;;;;;;27.42;7.53;;;;;;;;;;4970798;28;95916;-79
2022/04/12 21:50:32;;;;;;;26.92;6.15;;;;;;;;;;4970757;28;95736;-79
2022/04/12 21:52:58;;;;;;;21.67;7.30;;;;;;;;;;4969799;28;97269;-78
2022/04/12 21:55:26;;;;;;;29.33;7.22;;;;;;;;;;4974354;28;95282;-79
2022/04/12 21:57:52;;;;;;;14.50;5.82;;;;;;;;;;4989295;28;97220;-79
2022/04/12 22:00:33;;;;;;;13.50;6.43;;;;;;;;;;4989709;28;95303;-79
2022/04/12 22:03:00;;;;;;;38.05;7.25;;;;;;;;;;4989965;28;96125;-80
2022/04/12 22:05:27;;;;;;;17.95;6.22;;;;;;;;;;4966839;28;98500;-78
2022/04/12 22:07:53;;;;;;;25.80;7.20;;;;;;;;;;4970063;28;95429;-78
2022/04/12 22:10:20;;;;;;;13.63;6.00;;;;;;;;;;4970433;28;96869;-80
2022/04/12 22:12:46;;;;;;;14.48;6.43;;;;;;;;;;4970251;28;97584;-80
2022/04/12 22:15:13;;;;;;;13.77;6.43;;;;;;;;;;4972159;28;95758;-80
2022/04/12 22:17:39;;;;;;;15.43;5.68;;;;;;;;;;4992363;28;96734;-78
2022/04/12 22:20:06;;;;;;;15.23;6.00;;;;;;;;;;4990024;28;95545;-79
2022/04/12 22:22:32;;;;;;;12.77;5.32;;;;;;;;;;4989542;28;97024;-79
2022/04/12 22:24:59;;;;;;;17.00;6.25;;;;;;;;;;4988467;28;97441;-78
2022/04/12 22:27:29;;;;;;;34.10;7.13;;;;;;;;;;4970351;28;95316;-78
2022/04/12 22:29:56;;;;;;;11.10;5.93;;;;;;;;;;4969724;28;97051;-78
2022/04/12 22:32:22;;;;;;;13.23;5.63;;;;;;;;;;4969706;28;97521;-78
2022/04/12 22:34:49;;;;;;;12.68;6.28;;;;;;;;;;4969635;28;95411;-78
2022/04/12 22:37:15;;;;;;;32.08;7.15;;;;;;;;;;4988618;28;96776;-78
2022/04/12 22:39:59;;;;;;;76.55;9.70;;;;;;;;;;4990438;28;95671;-77
2022/04/12 22:42:27;;;;;;;26.38;6.97;;;;;;;;;;4989246;28;97118;-77
2022/04/12 22:44:53;;;;;;;15.98;6.55;;;;;;;;;;4969416;28;97424;-80
2022/04/12 22:47:20;;;;;;;31.17;7.35;;;;;;;;;;4970951;28;95724;-78
2022/04/12 22:49:46;;;;;;;51.58;8.27;;;;;;;;;;4984933;28;97399;-77
2022/04/12 22:52:12;;;;;;;12.25;6.35;;;;;;;;;;4988980;28;97600;-79
2022/04/12 22:54:39;;;;;;;14.55;6.75;;;;;;;;;;4989606;28;95572;-78
2022/04/12 22:57:05;;;;;;;11.88;6.38;;;;;;;;;;4988986;28;96770;-79
2022/04/12 22:59:31;;;;;;;28.05;7.00;;;;;;;;;;4976932;28;97232;-78
2022/04/12 23:01:57;;;;;;;19.20;6.45;;;;;;;;;;4972705;28;95470;-78
2022/04/12 23:04:24;;;;;;;15.38;7.10;;;;;;;;;;4968815;28;97245;-78
2022/04/12 23:06:50;;;;;;;12.85;6.53;;;;;;;;;;4969782;28;95261;-78
2022/04/12 23:09:16;;;;;;;15.20;6.80;;;;;;;;;;4978946;28;96626;-78
2022/04/12 23:11:43;;;;;;;13.40;6.55;;;;;;;;;;4988547;28;97482;-78
2022/04/12 23:14:09;;;;;;;30.45;7.55;;;;;;;;;;4970923;28;95868;-79
2022/04/12 23:16:37;;;;;;;17.58;6.82;;;;;;;;;;4962480;28;96940;-78
2022/04/12 23:19:04;;;;;;;15.82;6.88;;;;;;;;;;4984431;28;97422;-78
2022/04/12 23:21:30;;;;;;;13.85;6.88;;;;;;;;;;4991833;28;95432;-79
2022/04/12 23:23:56;;;;;;;40.00;8.10;;;;;;;;;;4987484;28;97412;-79
2022/04/12 23:26:23;;;;;;;20.90;6.95;;;;;;;;;;4988622;28;95112;-79
2022/04/12 23:28:49;;;;;;;29.35;7.03;;;;;;;;;;4974964;28;96960;-79
2022/04/12 23:31:34;;;;;;;15.23;7.10;;;;;;;;;;4967975;28;97540;-78
2022/04/12 23:34:02;;;;;;;29.30;7.90;;;;;;;;;;4968470;28;95376;-77
2022/04/12 23:36:29;;;;;;;14.50;6.53;;;;;;;;;;4969239;28;96819;-77
2022/04/12 23:38:55;;;;;;;16.85;7.68;;;;;;;;;;4982360;28;98062;-78
2022/04/12 23:41:21;;;;;;;16.25;7.05;;;;;;;;;;4988548;28;95658;-77
2022/04/12 23:43:47;;;;;;;12.25;7.25;;;;;;;;;;4991244;28;96803;-78
2022/04/12 23:46:14;;;;;;;20.25;7.63;;;;;;;;;;4986827;28;95655;-77
2022/04/12 23:51:25;;;;;;;15.23;6.60;;;;;;;;;;4972003;28;97383;-78
2022/04/12 23:53:52;;;;;;;15.38;7.65;;;;;;;;;;4971889;28;95418;-78
2022/04/12 23:56:18;;;;;;;27.50;7.38;;;;;;;;;;4954179;28;96762;-78
2022/04/12 23:58:44;;;;;;;19.50;6.97;;;;;;;;;;4973066;28;96721;-78
